Aérodrome :
LOGIN :

S'inscrire | Disclaimer

   EN    FR    IT 

 










Légende :    VFR   VFR Marginal   IFR   IFR Intensif   IFR Très Intensif
Visi : 
Plafond : 
>= 8 km
>= 3000ft
5 à 8 km
1000 à 3000 ft
1500m à 5 km
500 à 1000 ft
800 à 1500m
200 à 500 ft
< 800m
< 200 ft
Symboles :   Orages  Brouillard  Fortes neiges  Fortes précipitations  Vent > 20 kt
SIGMETs :   Divers  Orages  Givrage  Turbulence  Onde Orograph.  Cendres Volcan.







- Altitude de l'aérodrome : 1682 ft
- Code IATA : VIT


LEVT - Vitoria Gasteiz

DERNIER METAR :
  • 252100Z 31002KT 9000 7000S OVC013 19/17 Q1018

METARs EXPIRÉS :
  • 252030Z 35004KT 9000 7000S OVC013 20/17 Q1017
  • 252000Z 34003KT 280V040 9000 7000S OVC014 21/17 Q1017
  • 251930Z 30004KT 240V360 9000 BKN016 21/17 Q1017
  • 251900Z 36008KT 320V040 9999 SCT020 23/18 Q1017
  • 251830Z 35007KT 310V040 9999 FEW030 24/18 Q1017

TAF TAF LEVT
Valide du 25 à 18h jusqu'au 26 à 18h UTC


251700Z 2518/2618 02010KT CAVOK TX37/2615Z TN17/2601Z
TEMPO 2518/2520 01015G25KT
PROB30
TEMPO 2520/2602 3000 BR BCFG BKN003
BECMG 2521/2524 VRB05KT
BECMG 2606/2608 14010KT
PROB30
TEMPO 2608/2612 14015G25KT
Pas de NOTAMs connus pour ce terrain.
1 SIGMET publié pour la FIR Madrid (LECM) :
 
Orages noyés dans la masse
LECM SIGMET 2 VALID 251911/252200 LEVA
LECM MADRID FIR/UIR EMBD TS OBS AT 1911Z N OF LINE N4320 W00350 - N43 W00520 TOP FL340 MOV NNE 25KT NC=



MET'MAP, la Météo Aéronautique d'un coup d'oeil ! - Copyright ORBIFLY Décembre 2007 - Disclaimer

ORBIFLY MET'MAP TEAM :

Programmation & Développement : Alexandra Zaïnal
Conception & Développement : Baudouin d'Aumeries
Co-Programmation & Développement : Marc-Olivier Méhu
Soutien technique & logistique : Manuel Goepfert

Contact : metmap@orbifly.com




SOURCES & CREDITS :

   NOAA